sensor_id;sensor_type;location;lat;lon;timestamp;P1;durP1;ratioP1;P2;durP2;ratioP2
40939;SDS011;26666;50.156;7.700;2023-02-21T00:01:59;8.32;;;1.98;;
40939;SDS011;26666;50.156;7.700;2023-02-21T00:07:00;4.10;;;1.67;;
40939;SDS011;26666;50.156;7.700;2023-02-21T00:12:02;9.10;;;1.58;;
40939;SDS011;26666;50.156;7.700;2023-02-21T00:17:04;6.85;;;1.75;;
40939;SDS011;26666;50.156;7.700;2023-02-21T00:22:05;5.10;;;2.05;;
40939;SDS011;26666;50.156;7.700;2023-02-21T00:27:07;5.88;;;2.05;;
40939;SDS011;26666;50.156;7.700;2023-02-21T00:32:08;9.23;;;2.58;;
40939;SDS011;26666;50.156;7.700;2023-02-21T00:37:10;6.53;;;2.13;;
40939;SDS011;26666;50.156;7.700;2023-02-21T00:42:11;4.82;;;1.50;;
40939;SDS011;26666;50.156;7.700;2023-02-21T00:47:13;5.78;;;1.67;;
40939;SDS011;26666;50.156;7.700;2023-02-21T00:52:14;5.75;;;2.00;;
40939;SDS011;26666;50.156;7.700;2023-02-21T00:57:15;5.68;;;2.17;;
40939;SDS011;26666;50.156;7.700;2023-02-21T01:02:17;5.13;;;2.10;;
40939;SDS011;26666;50.156;7.700;2023-02-21T01:07:18;8.25;;;2.28;;
40939;SDS011;26666;50.156;7.700;2023-02-21T01:12:20;5.57;;;1.77;;
40939;SDS011;26666;50.156;7.700;2023-02-21T01:17:21;3.17;;;1.27;;
40939;SDS011;26666;50.156;7.700;2023-02-21T01:22:23;3.85;;;1.17;;
40939;SDS011;26666;50.156;7.700;2023-02-21T01:27:24;5.95;;;2.03;;
40939;SDS011;26666;50.156;7.700;2023-02-21T01:32:26;6.97;;;2.78;;
40939;SDS011;26666;50.156;7.700;2023-02-21T01:37:27;3.95;;;1.92;;
40939;SDS011;26666;50.156;7.700;2023-02-21T01:42:29;10.68;;;1.85;;
40939;SDS011;26666;50.156;7.700;2023-02-21T01:47:31;2.88;;;1.33;;
40939;SDS011;26666;50.156;7.700;2023-02-21T01:52:33;6.35;;;2.03;;
40939;SDS011;26666;50.156;7.700;2023-02-21T01:57:35;5.50;;;1.83;;
40939;SDS011;26666;50.156;7.700;2023-02-21T02:03:01;5.25;;;1.90;;
40939;SDS011;26666;50.156;7.700;2023-02-21T02:08:05;6.32;;;2.33;;
40939;SDS011;26666;50.156;7.700;2023-02-21T02:29:06;9.13;;;2.95;;
40939;SDS011;26666;50.156;7.700;2023-02-21T02:34:34;10.63;;;2.30;;
40939;SDS011;26666;50.156;7.700;2023-02-21T02:44:53;8.77;;;2.50;;
40939;SDS011;26666;50.156;7.700;2023-02-21T02:50:00;6.57;;;2.17;;
40939;SDS011;26666;50.156;7.700;2023-02-21T02:55:18;6.55;;;3.22;;
40939;SDS011;26666;50.156;7.700;2023-02-21T03:00:34;5.28;;;2.30;;
40939;SDS011;26666;50.156;7.700;2023-02-21T03:05:42;9.75;;;4.07;;
40939;SDS011;26666;50.156;7.700;2023-02-21T03:10:53;7.80;;;2.70;;
40939;SDS011;26666;50.156;7.700;2023-02-21T03:16:08;5.35;;;2.10;;
40939;SDS011;26666;50.156;7.700;2023-02-21T03:21:28;8.68;;;3.00;;
40939;SDS011;26666;50.156;7.700;2023-02-21T03:26:35;7.57;;;2.33;;
40939;SDS011;26666;50.156;7.700;2023-02-21T03:31:40;10.30;;;2.97;;
40939;SDS011;26666;50.156;7.700;2023-02-21T03:36:47;11.77;;;2.75;;
40939;SDS011;26666;50.156;7.700;2023-02-21T03:41:49;5.43;;;1.85;;
40939;SDS011;26666;50.156;7.700;2023-02-21T03:46:50;12.60;;;3.53;;
40939;SDS011;26666;50.156;7.700;2023-02-21T03:51:52;8.98;;;2.45;;
40939;SDS011;26666;50.156;7.700;2023-02-21T03:56:53;8.18;;;2.65;;
40939;SDS011;26666;50.156;7.700;2023-02-21T04:01:55;6.15;;;2.22;;
40939;SDS011;26666;50.156;7.700;2023-02-21T04:06:56;8.18;;;2.65;;
40939;SDS011;26666;50.156;7.700;2023-02-21T04:11:58;9.63;;;3.10;;
40939;SDS011;26666;50.156;7.700;2023-02-21T04:17:00;9.68;;;2.70;;
40939;SDS011;26666;50.156;7.700;2023-02-21T04:22:01;5.47;;;1.88;;
40939;SDS011;26666;50.156;7.700;2023-02-21T04:27:03;5.35;;;2.38;;
40939;SDS011;26666;50.156;7.700;2023-02-21T04:32:04;6.30;;;2.90;;
40939;SDS011;26666;50.156;7.700;2023-02-21T04:37:06;7.22;;;2.60;;
40939;SDS011;26666;50.156;7.700;2023-02-21T04:42:07;8.88;;;3.17;;
40939;SDS011;26666;50.156;7.700;2023-02-21T04:47:09;4.88;;;2.50;;
40939;SDS011;26666;50.156;7.700;2023-02-21T04:52:11;6.85;;;2.40;;
40939;SDS011;26666;50.156;7.700;2023-02-21T04:57:12;4.88;;;2.33;;
40939;SDS011;26666;50.156;7.700;2023-02-21T05:02:17;10.00;;;2.75;;
40939;SDS011;26666;50.156;7.700;2023-02-21T05:07:19;9.43;;;2.35;;
40939;SDS011;26666;50.156;7.700;2023-02-21T05:12:20;2.15;;;1.50;;
40939;SDS011;26666;50.156;7.700;2023-02-21T05:17:22;7.60;;;2.00;;
40939;SDS011;26666;50.156;7.700;2023-02-21T05:22:23;7.82;;;2.25;;
40939;SDS011;26666;50.156;7.700;2023-02-21T05:27:25;10.07;;;3.35;;
40939;SDS011;26666;50.156;7.700;2023-02-21T05:32:26;6.00;;;2.78;;
40939;SDS011;26666;50.156;7.700;2023-02-21T05:37:28;10.27;;;2.60;;
40939;SDS011;26666;50.156;7.700;2023-02-21T05:42:31;11.45;;;2.33;;
40939;SDS011;26666;50.156;7.700;2023-02-21T05:47:33;7.68;;;2.90;;
40939;SDS011;26666;50.156;7.700;2023-02-21T05:52:35;5.75;;;2.35;;
40939;SDS011;26666;50.156;7.700;2023-02-21T05:57:37;5.35;;;2.40;;
40939;SDS011;26666;50.156;7.700;2023-02-21T06:02:39;11.25;;;2.42;;
40939;SDS011;26666;50.156;7.700;2023-02-21T06:07:41;7.97;;;2.88;;
40939;SDS011;26666;50.156;7.700;2023-02-21T06:12:42;9.90;;;2.90;;
40939;SDS011;26666;50.156;7.700;2023-02-21T06:17:45;10.88;;;2.80;;
40939;SDS011;26666;50.156;7.700;2023-02-21T06:22:46;13.40;;;2.75;;
40939;SDS011;26666;50.156;7.700;2023-02-21T06:27:48;8.40;;;2.75;;
40939;SDS011;26666;50.156;7.700;2023-02-21T06:32:49;8.82;;;2.72;;
40939;SDS011;26666;50.156;7.700;2023-02-21T06:37:51;8.77;;;2.13;;
40939;SDS011;26666;50.156;7.700;2023-02-21T06:42:53;8.98;;;2.50;;
40939;SDS011;26666;50.156;7.700;2023-02-21T06:47:54;7.13;;;2.05;;
40939;SDS011;26666;50.156;7.700;2023-02-21T06:52:55;7.75;;;2.53;;
40939;SDS011;26666;50.156;7.700;2023-02-21T06:57:57;5.35;;;2.30;;
40939;SDS011;26666;50.156;7.700;2023-02-21T07:02:59;11.90;;;2.45;;
40939;SDS011;26666;50.156;7.700;2023-02-21T07:08:00;8.77;;;2.22;;
40939;SDS011;26666;50.156;7.700;2023-02-21T07:13:02;7.32;;;2.15;;
40939;SDS011;26666;50.156;7.700;2023-02-21T07:18:04;9.85;;;3.03;;
40939;SDS011;26666;50.156;7.700;2023-02-21T07:23:05;9.95;;;3.30;;
40939;SDS011;26666;50.156;7.700;2023-02-21T07:28:07;6.95;;;2.55;;
40939;SDS011;26666;50.156;7.700;2023-02-21T07:33:08;7.28;;;2.90;;
40939;SDS011;26666;50.156;7.700;2023-02-21T07:38:18;24.20;;;4.25;;
40939;SDS011;26666;50.156;7.700;2023-02-21T07:43:20;10.90;;;2.97;;
40939;SDS011;26666;50.156;7.700;2023-02-21T07:48:22;10.77;;;2.63;;
40939;SDS011;26666;50.156;7.700;2023-02-21T07:53:23;23.02;;;6.20;;
40939;SDS011;26666;50.156;7.700;2023-02-21T07:58:25;11.73;;;5.47;;
40939;SDS011;26666;50.156;7.700;2023-02-21T08:03:29;8.52;;;4.00;;
40939;SDS011;26666;50.156;7.700;2023-02-21T08:08:30;12.80;;;3.78;;
40939;SDS011;26666;50.156;7.700;2023-02-21T08:13:32;10.10;;;3.90;;
40939;SDS011;26666;50.156;7.700;2023-02-21T08:18:34;9.75;;;3.45;;
40939;SDS011;26666;50.156;7.700;2023-02-21T08:23:35;6.57;;;2.55;;
40939;SDS011;26666;50.156;7.700;2023-02-21T08:28:37;10.02;;;3.40;;
40939;SDS011;26666;50.156;7.700;2023-02-21T08:33:39;14.93;;;4.43;;
40939;SDS011;26666;50.156;7.700;2023-02-21T08:38:40;8.40;;;3.50;;
40939;SDS011;26666;50.156;7.700;2023-02-21T08:43:42;17.05;;;4.40;;
40939;SDS011;26666;50.156;7.700;2023-02-21T08:48:43;10.95;;;4.28;;
40939;SDS011;26666;50.156;7.700;2023-02-21T08:53:45;10.05;;;3.63;;
40939;SDS011;26666;50.156;7.700;2023-02-21T08:58:46;10.40;;;4.20;;
40939;SDS011;26666;50.156;7.700;2023-02-21T09:03:49;14.18;;;3.80;;
40939;SDS011;26666;50.156;7.700;2023-02-21T09:08:51;10.40;;;4.35;;
40939;SDS011;26666;50.156;7.700;2023-02-21T09:13:53;6.72;;;3.20;;
40939;SDS011;26666;50.156;7.700;2023-02-21T09:18:58;15.80;;;4.82;;
40939;SDS011;26666;50.156;7.700;2023-02-21T09:29:01;10.40;;;3.55;;
40939;SDS011;26666;50.156;7.700;2023-02-21T09:34:03;8.73;;;3.00;;
40939;SDS011;26666;50.156;7.700;2023-02-21T09:39:04;13.25;;;3.67;;
40939;SDS011;26666;50.156;7.700;2023-02-21T09:44:06;9.02;;;3.17;;
40939;SDS011;26666;50.156;7.700;2023-02-21T09:49:24;10.05;;;4.20;;
40939;SDS011;26666;50.156;7.700;2023-02-21T09:59:34;9.77;;;3.67;;
40939;SDS011;26666;50.156;7.700;2023-02-21T10:15:22;8.52;;;3.10;;
40939;SDS011;26666;50.156;7.700;2023-02-21T10:20:28;11.45;;;3.75;;
40939;SDS011;26666;50.156;7.700;2023-02-21T10:25:35;8.73;;;3.45;;
40939;SDS011;26666;50.156;7.700;2023-02-21T10:30:42;11.40;;;3.50;;
40939;SDS011;26666;50.156;7.700;2023-02-21T10:35:44;12.00;;;3.47;;
40939;SDS011;26666;50.156;7.700;2023-02-21T10:51:16;10.15;;;4.65;;
40939;SDS011;26666;50.156;7.700;2023-02-21T10:56:30;9.15;;;2.47;;
40939;SDS011;26666;50.156;7.700;2023-02-21T11:06:55;9.77;;;2.65;;
40939;SDS011;26666;50.156;7.700;2023-02-21T11:12:19;8.20;;;2.88;;
40939;SDS011;26666;50.156;7.700;2023-02-21T11:17:28;11.10;;;3.60;;
40939;SDS011;26666;50.156;7.700;2023-02-21T11:27:35;6.03;;;2.42;;
40939;SDS011;26666;50.156;7.700;2023-02-21T11:32:39;14.77;;;3.38;;
40939;SDS011;26666;50.156;7.700;2023-02-21T11:38:28;4.03;;;2.25;;
40939;SDS011;26666;50.156;7.700;2023-02-21T11:43:32;7.05;;;2.33;;
40939;SDS011;26666;50.156;7.700;2023-02-21T11:54:13;4.65;;;1.65;;
40939;SDS011;26666;50.156;7.700;2023-02-21T12:14:57;5.15;;;1.27;;
40939;SDS011;26666;50.156;7.700;2023-02-21T12:49:23;3.45;;;0.40;;
40939;SDS011;26666;50.156;7.700;2023-02-21T12:54:39;0.47;;;0.20;;
40939;SDS011;26666;50.156;7.700;2023-02-21T13:11:05;1.50;;;0.50;;
40939;SDS011;26666;50.156;7.700;2023-02-21T13:16:15;0.73;;;0.20;;
40939;SDS011;26666;50.156;7.700;2023-02-21T13:21:31;1.17;;;0.20;;
40939;SDS011;26666;50.156;7.700;2023-02-21T13:37:23;2.05;;;0.20;;
40939;SDS011;26666;50.156;7.700;2023-02-21T13:42:28;2.13;;;0.38;;
40939;SDS011;26666;50.156;7.700;2023-02-21T13:48:09;0.73;;;0.32;;
40939;SDS011;26666;50.156;7.700;2023-02-21T14:13:38;0.75;;;0.40;;
40939;SDS011;26666;50.156;7.700;2023-02-21T14:24:29;2.55;;;0.63;;
40939;SDS011;26666;50.156;7.700;2023-02-21T14:39:50;1.42;;;0.52;;
40939;SDS011;26666;50.156;7.700;2023-02-21T15:06:20;2.05;;;1.02;;
40939;SDS011;26666;50.156;7.700;2023-02-21T15:11:27;2.28;;;0.85;;
40939;SDS011;26666;50.156;7.700;2023-02-21T15:16:39;1.20;;;0.45;;
40939;SDS011;26666;50.156;7.700;2023-02-21T15:21:45;0.70;;;0.50;;
40939;SDS011;26666;50.156;7.700;2023-02-21T15:26:46;3.97;;;0.70;;
40939;SDS011;26666;50.156;7.700;2023-02-21T15:36:56;4.55;;;1.63;;
40939;SDS011;26666;50.156;7.700;2023-02-21T15:42:01;1.98;;;1.15;;
40939;SDS011;26666;50.156;7.700;2023-02-21T15:47:14;4.45;;;1.05;;
40939;SDS011;26666;50.156;7.700;2023-02-21T15:52:30;4.20;;;0.75;;
40939;SDS011;26666;50.156;7.700;2023-02-21T15:57:35;4.97;;;0.90;;
40939;SDS011;26666;50.156;7.700;2023-02-21T16:02:37;5.50;;;0.90;;
40939;SDS011;26666;50.156;7.700;2023-02-21T16:07:38;1.98;;;0.65;;
40939;SDS011;26666;50.156;7.700;2023-02-21T16:12:40;1.58;;;0.88;;
40939;SDS011;26666;50.156;7.700;2023-02-21T16:17:44;3.95;;;0.75;;
40939;SDS011;26666;50.156;7.700;2023-02-21T16:28:32;1.45;;;0.28;;
40939;SDS011;26666;50.156;7.700;2023-02-21T16:33:34;10.30;;;0.93;;
40939;SDS011;26666;50.156;7.700;2023-02-21T16:38:37;6.43;;;2.45;;
40939;SDS011;26666;50.156;7.700;2023-02-21T16:43:38;0.80;;;0.17;;
40939;SDS011;26666;50.156;7.700;2023-02-21T16:48:40;0.20;;;0.20;;
40939;SDS011;26666;50.156;7.700;2023-02-21T16:53:42;0.80;;;0.10;;
40939;SDS011;26666;50.156;7.700;2023-02-21T16:58:45;0.63;;;0.13;;
40939;SDS011;26666;50.156;7.700;2023-02-21T17:03:50;0.47;;;0.20;;
40939;SDS011;26666;50.156;7.700;2023-02-21T17:08:54;0.20;;;0.10;;
40939;SDS011;26666;50.156;7.700;2023-02-21T17:13:55;0.10;;;0.10;;
40939;SDS011;26666;50.156;7.700;2023-02-21T17:18:57;1.65;;;0.30;;
40939;SDS011;26666;50.156;7.700;2023-02-21T17:23:59;0.82;;;0.20;;
40939;SDS011;26666;50.156;7.700;2023-02-21T17:29:00;0.95;;;0.40;;
40939;SDS011;26666;50.156;7.700;2023-02-21T17:34:02;0.77;;;0.15;;
40939;SDS011;26666;50.156;7.700;2023-02-21T17:39:04;1.95;;;0.28;;
40939;SDS011;26666;50.156;7.700;2023-02-21T17:44:06;1.17;;;0.20;;
40939;SDS011;26666;50.156;7.700;2023-02-21T17:49:07;0.10;;;0.05;;
40939;SDS011;26666;50.156;7.700;2023-02-21T17:54:09;3.53;;;0.30;;
40939;SDS011;26666;50.156;7.700;2023-02-21T17:59:11;2.83;;;0.00;;
40939;SDS011;26666;50.156;7.700;2023-02-21T18:04:13;0.10;;;0.10;;
40939;SDS011;26666;50.156;7.700;2023-02-21T18:09:15;1.58;;;0.10;;
40939;SDS011;26666;50.156;7.700;2023-02-21T18:14:17;0.38;;;0.00;;
40939;SDS011;26666;50.156;7.700;2023-02-21T18:19:19;0.40;;;0.17;;
40939;SDS011;26666;50.156;7.700;2023-02-21T18:24:21;0.65;;;0.05;;
40939;SDS011;26666;50.156;7.700;2023-02-21T18:29:22;0.60;;;0.10;;
40939;SDS011;26666;50.156;7.700;2023-02-21T18:34:24;4.90;;;0.22;;
40939;SDS011;26666;50.156;7.700;2023-02-21T18:39:26;4.63;;;0.20;;
40939;SDS011;26666;50.156;7.700;2023-02-21T18:44:28;0.85;;;0.22;;
40939;SDS011;26666;50.156;7.700;2023-02-21T18:49:31;0.20;;;0.20;;
40939;SDS011;26666;50.156;7.700;2023-02-21T18:54:33;3.63;;;0.45;;
40939;SDS011;26666;50.156;7.700;2023-02-21T18:59:34;10.35;;;0.57;;
40939;SDS011;26666;50.156;7.700;2023-02-21T19:04:36;1.55;;;0.17;;
40939;SDS011;26666;50.156;7.700;2023-02-21T19:09:44;1.08;;;0.17;;
40939;SDS011;26666;50.156;7.700;2023-02-21T19:14:55;0.43;;;0.20;;
40939;SDS011;26666;50.156;7.700;2023-02-21T19:19:57;1.08;;;0.20;;
40939;SDS011;26666;50.156;7.700;2023-02-21T19:24:58;0.10;;;0.10;;
40939;SDS011;26666;50.156;7.700;2023-02-21T19:29:59;0.80;;;0.20;;
40939;SDS011;26666;50.156;7.700;2023-02-21T19:35:01;3.20;;;0.28;;
40939;SDS011;26666;50.156;7.700;2023-02-21T19:40:04;1.05;;;0.40;;
40939;SDS011;26666;50.156;7.700;2023-02-21T19:45:08;0.63;;;0.40;;
40939;SDS011;26666;50.156;7.700;2023-02-21T19:50:09;1.00;;;0.47;;
40939;SDS011;26666;50.156;7.700;2023-02-21T19:55:12;0.52;;;0.25;;
40939;SDS011;26666;50.156;7.700;2023-02-21T20:00:13;2.83;;;0.20;;
40939;SDS011;26666;50.156;7.700;2023-02-21T20:05:15;1.63;;;0.52;;
40939;SDS011;26666;50.156;7.700;2023-02-21T20:10:17;2.63;;;1.05;;
40939;SDS011;26666;50.156;7.700;2023-02-21T20:15:20;1.33;;;0.50;;
40939;SDS011;26666;50.156;7.700;2023-02-21T20:20:22;1.80;;;0.30;;
40939;SDS011;26666;50.156;7.700;2023-02-21T20:25:35;0.30;;;0.30;;
40939;SDS011;26666;50.156;7.700;2023-02-21T20:41:30;0.77;;;0.20;;
40939;SDS011;26666;50.156;7.700;2023-02-21T20:46:32;10.10;;;0.40;;
40939;SDS011;26666;50.156;7.700;2023-02-21T20:51:35;3.45;;;0.35;;
40939;SDS011;26666;50.156;7.700;2023-02-21T20:56:39;0.47;;;0.20;;
40939;SDS011;26666;50.156;7.700;2023-02-21T21:01:42;4.72;;;0.30;;
40939;SDS011;26666;50.156;7.700;2023-02-21T21:06:45;2.10;;;0.77;;
40939;SDS011;26666;50.156;7.700;2023-02-21T21:11:47;1.75;;;0.47;;
40939;SDS011;26666;50.156;7.700;2023-02-21T21:16:49;2.05;;;0.57;;
40939;SDS011;26666;50.156;7.700;2023-02-21T21:21:51;0.65;;;0.20;;
40939;SDS011;26666;50.156;7.700;2023-02-21T21:26:53;0.73;;;0.40;;
40939;SDS011;26666;50.156;7.700;2023-02-21T21:31:55;1.08;;;0.30;;
40939;SDS011;26666;50.156;7.700;2023-02-21T21:36:58;5.70;;;1.65;;
40939;SDS011;26666;50.156;7.700;2023-02-21T21:42:02;0.98;;;0.50;;
40939;SDS011;26666;50.156;7.700;2023-02-21T21:47:05;2.15;;;0.73;;
40939;SDS011;26666;50.156;7.700;2023-02-21T21:52:08;0.98;;;0.50;;
40939;SDS011;26666;50.156;7.700;2023-02-21T21:57:11;2.08;;;0.50;;
40939;SDS011;26666;50.156;7.700;2023-02-21T22:02:15;0.63;;;0.55;;
40939;SDS011;26666;50.156;7.700;2023-02-21T22:07:17;4.95;;;0.65;;
40939;SDS011;26666;50.156;7.700;2023-02-21T22:12:19;1.92;;;0.60;;
40939;SDS011;26666;50.156;7.700;2023-02-21T22:17:21;1.50;;;0.73;;
40939;SDS011;26666;50.156;7.700;2023-02-21T22:22:22;0.98;;;0.32;;
40939;SDS011;26666;50.156;7.700;2023-02-21T22:27:24;5.78;;;0.75;;
40939;SDS011;26666;50.156;7.700;2023-02-21T22:32:25;1.02;;;0.60;;
40939;SDS011;26666;50.156;7.700;2023-02-21T22:37:27;1.20;;;0.57;;
40939;SDS011;26666;50.156;7.700;2023-02-21T22:42:29;2.40;;;0.30;;
40939;SDS011;26666;50.156;7.700;2023-02-21T22:47:30;1.50;;;0.20;;
40939;SDS011;26666;50.156;7.700;2023-02-21T22:52:32;0.80;;;0.20;;
40939;SDS011;26666;50.156;7.700;2023-02-21T22:57:33;8.10;;;0.70;;
40939;SDS011;26666;50.156;7.700;2023-02-21T23:02:35;1.10;;;0.50;;
40939;SDS011;26666;50.156;7.700;2023-02-21T23:07:37;0.10;;;0.10;;
40939;SDS011;26666;50.156;7.700;2023-02-21T23:12:38;1.25;;;0.30;;
40939;SDS011;26666;50.156;7.700;2023-02-21T23:17:44;1.17;;;0.50;;
40939;SDS011;26666;50.156;7.700;2023-02-21T23:22:48;2.83;;;0.35;;
40939;SDS011;26666;50.156;7.700;2023-02-21T23:27:52;3.92;;;0.85;;
40939;SDS011;26666;50.156;7.700;2023-02-21T23:32:57;0.60;;;0.38;;
40939;SDS011;26666;50.156;7.700;2023-02-21T23:37:59;0.95;;;0.40;;
40939;SDS011;26666;50.156;7.700;2023-02-21T23:43:01;5.38;;;0.75;;
40939;SDS011;26666;50.156;7.700;2023-02-21T23:48:02;2.08;;;0.80;;
40939;SDS011;26666;50.156;7.700;2023-02-21T23:53:04;0.25;;;0.20;;
40939;SDS011;26666;50.156;7.700;2023-02-21T23:58:06;4.45;;;0.57;;
